<?xml version="1.0" encoding="UTF-8" standalone="no" ?>
<gpx xmlns="http://www.topografix.com/GPX/1/1" xmlns:xsi="http://www.w3.org/2001/XMLSchema-instance" xsi:schemaLocation="http://www.topografix.com/GPX/1/1 http://www.topografix.com/GPX/1/1/gpx.xsd" version="1.1" creator="VisuGPX - https://www.visugpx.com">
  <metadata>
    <name>Lyons 2017 normal</name>
    <desc><![CDATA[Sortie automnale 2017 des Sangliers du Vexin à Lyons-la-Forêt.
Parcours pour moyens.]]></desc>
  </metadata>
  <trk>
    <name><![CDATA[OR-7997073--Lyons-la-Forêt:sortie automnale des Sangliers]]></name>
    <trkseg>
      <trkpt lat="49.39925" lon="1.47923">
        <ele>107</ele>
        <time>2017-10-26T18:51:43Z</time>
      </trkpt>
      <trkpt lat="49.39892" lon="1.47891">
        <ele>110</ele>
        <time>2017-10-26T18:53:43Z</time>
      </trkpt>
      <trkpt lat="49.39705" lon="1.47869">
        <ele>135</ele>
        <time>2017-10-26T18:55:43Z</time>
      </trkpt>
      <trkpt lat="49.39445" lon="1.47535">
        <ele>160</ele>
        <time>2017-10-26T18:57:43Z</time>
      </trkpt>
      <trkpt lat="49.39389" lon="1.47479">
        <ele>164</ele>
        <time>2017-10-26T18:59:43Z</time>
      </trkpt>
      <trkpt lat="49.39201" lon="1.47348">
        <ele>162</ele>
        <time>2017-10-26T19:01:43Z</time>
      </trkpt>
      <trkpt lat="49.39169" lon="1.47528">
        <ele>162</ele>
        <time>2017-10-26T19:03:43Z</time>
      </trkpt>
      <trkpt lat="49.39141" lon="1.47552">
        <ele>163</ele>
        <time>2017-10-26T19:05:43Z</time>
      </trkpt>
      <trkpt lat="49.3897" lon="1.47485">
        <ele>166</ele>
        <time>2017-10-26T19:07:43Z</time>
      </trkpt>
      <trkpt lat="49.38942" lon="1.47496">
        <ele>168</ele>
        <time>2017-10-26T19:09:43Z</time>
      </trkpt>
      <trkpt lat="49.38759" lon="1.47644">
        <ele>172</ele>
        <time>2017-10-26T19:11:43Z</time>
      </trkpt>
      <trkpt lat="49.38521" lon="1.47777">
        <ele>170</ele>
        <time>2017-10-26T19:13:43Z</time>
      </trkpt>
      <trkpt lat="49.38427" lon="1.47792">
        <ele>170</ele>
        <time>2017-10-26T19:15:43Z</time>
      </trkpt>
      <trkpt lat="49.38409" lon="1.47809">
        <ele>170</ele>
        <time>2017-10-26T19:17:43Z</time>
      </trkpt>
      <trkpt lat="49.37955" lon="1.47801">
        <ele>182</ele>
        <time>2017-10-26T19:19:43Z</time>
      </trkpt>
      <trkpt lat="49.38156" lon="1.48887">
        <ele>180</ele>
        <time>2017-10-26T19:21:43Z</time>
      </trkpt>
      <trkpt lat="49.38074" lon="1.48992">
        <ele>185</ele>
        <time>2017-10-26T19:23:43Z</time>
      </trkpt>
      <trkpt lat="49.37948" lon="1.49442">
        <ele>189</ele>
        <time>2017-10-26T19:25:43Z</time>
      </trkpt>
      <trkpt lat="49.37745" lon="1.4944">
        <ele>174</ele>
        <time>2017-10-26T19:27:43Z</time>
      </trkpt>
      <trkpt lat="49.37604" lon="1.4952">
        <ele>160</ele>
        <time>2017-10-26T19:29:43Z</time>
      </trkpt>
      <trkpt lat="49.37488" lon="1.4961">
        <ele>135</ele>
        <time>2017-10-26T19:31:43Z</time>
      </trkpt>
      <trkpt lat="49.37375" lon="1.49779">
        <ele>118</ele>
        <time>2017-10-26T19:33:43Z</time>
      </trkpt>
      <trkpt lat="49.37339" lon="1.49856">
        <ele>114</ele>
        <time>2017-10-26T19:35:43Z</time>
      </trkpt>
      <trkpt lat="49.37307" lon="1.49919">
        <ele>111</ele>
        <time>2017-10-26T19:37:43Z</time>
      </trkpt>
      <trkpt lat="49.37316" lon="1.49786">
        <ele>110</ele>
        <time>2017-10-26T19:39:43Z</time>
      </trkpt>
      <trkpt lat="49.37311" lon="1.4967">
        <ele>109</ele>
        <time>2017-10-26T19:41:43Z</time>
      </trkpt>
      <trkpt lat="49.37281" lon="1.49689">
        <ele>106</ele>
        <time>2017-10-26T19:43:43Z</time>
      </trkpt>
      <trkpt lat="49.3724" lon="1.49766">
        <ele>107</ele>
        <time>2017-10-26T19:45:43Z</time>
      </trkpt>
      <trkpt lat="49.3724" lon="1.49625">
        <ele>102</ele>
        <time>2017-10-26T19:47:43Z</time>
      </trkpt>
      <trkpt lat="49.37198" lon="1.4938">
        <ele>101</ele>
        <time>2017-10-26T19:49:43Z</time>
      </trkpt>
      <trkpt lat="49.37202" lon="1.49277">
        <ele>101</ele>
        <time>2017-10-26T19:51:43Z</time>
      </trkpt>
      <trkpt lat="49.37178" lon="1.49211">
        <ele>102</ele>
        <time>2017-10-26T19:53:43Z</time>
      </trkpt>
      <trkpt lat="49.37171" lon="1.4918">
        <ele>102</ele>
        <time>2017-10-26T19:55:43Z</time>
      </trkpt>
      <trkpt lat="49.37129" lon="1.49086">
        <ele>104</ele>
        <time>2017-10-26T19:57:43Z</time>
      </trkpt>
      <trkpt lat="49.37119" lon="1.49052">
        <ele>105</ele>
        <time>2017-10-26T19:59:43Z</time>
      </trkpt>
      <trkpt lat="49.37111" lon="1.48927">
        <ele>106</ele>
        <time>2017-10-26T20:01:43Z</time>
      </trkpt>
      <trkpt lat="49.37096" lon="1.48874">
        <ele>107</ele>
        <time>2017-10-26T20:03:43Z</time>
      </trkpt>
      <trkpt lat="49.36963" lon="1.48715">
        <ele>113</ele>
        <time>2017-10-26T20:05:43Z</time>
      </trkpt>
      <trkpt lat="49.36939" lon="1.4865">
        <ele>114</ele>
        <time>2017-10-26T20:07:43Z</time>
      </trkpt>
      <trkpt lat="49.36918" lon="1.48535">
        <ele>112</ele>
        <time>2017-10-26T20:09:43Z</time>
      </trkpt>
      <trkpt lat="49.36875" lon="1.48434">
        <ele>115</ele>
        <time>2017-10-26T20:11:43Z</time>
      </trkpt>
      <trkpt lat="49.36857" lon="1.48326">
        <ele>111</ele>
        <time>2017-10-26T20:13:43Z</time>
      </trkpt>
      <trkpt lat="49.36808" lon="1.48221">
        <ele>114</ele>
        <time>2017-10-26T20:15:43Z</time>
      </trkpt>
      <trkpt lat="49.36794" lon="1.47996">
        <ele>103</ele>
        <time>2017-10-26T20:17:43Z</time>
      </trkpt>
      <trkpt lat="49.36906" lon="1.47925">
        <ele>92</ele>
        <time>2017-10-26T20:19:43Z</time>
      </trkpt>
      <trkpt lat="49.36925" lon="1.47904">
        <ele>94</ele>
        <time>2017-10-26T20:21:43Z</time>
      </trkpt>
      <trkpt lat="49.36949" lon="1.47904">
        <ele>96</ele>
        <time>2017-10-26T20:23:43Z</time>
      </trkpt>
      <trkpt lat="49.36969" lon="1.47927">
        <ele>98</ele>
        <time>2017-10-26T20:25:43Z</time>
      </trkpt>
      <trkpt lat="49.37001" lon="1.47942">
        <ele>101</ele>
        <time>2017-10-26T20:27:43Z</time>
      </trkpt>
      <trkpt lat="49.37079" lon="1.47829">
        <ele>117</ele>
        <time>2017-10-26T20:29:43Z</time>
      </trkpt>
      <trkpt lat="49.37228" lon="1.47666">
        <ele>135</ele>
        <time>2017-10-26T20:31:43Z</time>
      </trkpt>
      <trkpt lat="49.37424" lon="1.47389">
        <ele>159</ele>
        <time>2017-10-26T20:33:43Z</time>
      </trkpt>
      <trkpt lat="49.37434" lon="1.47196">
        <ele>167</ele>
        <time>2017-10-26T20:35:43Z</time>
      </trkpt>
      <trkpt lat="49.37421" lon="1.47003">
        <ele>170</ele>
        <time>2017-10-26T20:37:43Z</time>
      </trkpt>
      <trkpt lat="49.37383" lon="1.46739">
        <ele>170</ele>
        <time>2017-10-26T20:39:43Z</time>
      </trkpt>
      <trkpt lat="49.37378" lon="1.46618">
        <ele>173</ele>
        <time>2017-10-26T20:41:43Z</time>
      </trkpt>
      <trkpt lat="49.37374" lon="1.46389">
        <ele>169</ele>
        <time>2017-10-26T20:43:43Z</time>
      </trkpt>
      <trkpt lat="49.37358" lon="1.46314">
        <ele>169</ele>
        <time>2017-10-26T20:45:43Z</time>
      </trkpt>
      <trkpt lat="49.37351" lon="1.46213">
        <ele>166</ele>
        <time>2017-10-26T20:47:43Z</time>
      </trkpt>
      <trkpt lat="49.37363" lon="1.46129">
        <ele>161</ele>
        <time>2017-10-26T20:49:43Z</time>
      </trkpt>
      <trkpt lat="49.37374" lon="1.46065">
        <ele>155</ele>
        <time>2017-10-26T20:51:43Z</time>
      </trkpt>
      <trkpt lat="49.37325" lon="1.46086">
        <ele>158</ele>
        <time>2017-10-26T20:53:43Z</time>
      </trkpt>
      <trkpt lat="49.372" lon="1.46086">
        <ele>169</ele>
        <time>2017-10-26T20:55:43Z</time>
      </trkpt>
      <trkpt lat="49.37193" lon="1.45722">
        <ele>155</ele>
        <time>2017-10-26T20:57:43Z</time>
      </trkpt>
      <trkpt lat="49.37084" lon="1.45653">
        <ele>160</ele>
        <time>2017-10-26T20:59:43Z</time>
      </trkpt>
      <trkpt lat="49.37048" lon="1.4561">
        <ele>156</ele>
        <time>2017-10-26T21:01:43Z</time>
      </trkpt>
      <trkpt lat="49.3695" lon="1.45685">
        <ele>165</ele>
        <time>2017-10-26T21:03:43Z</time>
      </trkpt>
      <trkpt lat="49.36922" lon="1.45754">
        <ele>169</ele>
        <time>2017-10-26T21:05:43Z</time>
      </trkpt>
      <trkpt lat="49.36829" lon="1.45861">
        <ele>166</ele>
        <time>2017-10-26T21:07:43Z</time>
      </trkpt>
      <trkpt lat="49.36544" lon="1.45629">
        <ele>151</ele>
        <time>2017-10-26T21:09:43Z</time>
      </trkpt>
      <trkpt lat="49.36464" lon="1.45591">
        <ele>150</ele>
        <time>2017-10-26T21:11:43Z</time>
      </trkpt>
      <trkpt lat="49.36397" lon="1.45466">
        <ele>146</ele>
        <time>2017-10-26T21:13:43Z</time>
      </trkpt>
      <trkpt lat="49.36151" lon="1.45116">
        <ele>124</ele>
        <time>2017-10-26T21:15:43Z</time>
      </trkpt>
      <trkpt lat="49.36025" lon="1.43518">
        <ele>127</ele>
        <time>2017-10-26T21:17:43Z</time>
      </trkpt>
      <trkpt lat="49.36126" lon="1.43393">
        <ele>116</ele>
        <time>2017-10-26T21:19:43Z</time>
      </trkpt>
      <trkpt lat="49.36391" lon="1.43737">
        <ele>107</ele>
        <time>2017-10-26T21:21:43Z</time>
      </trkpt>
      <trkpt lat="49.3641" lon="1.4372">
        <ele>103</ele>
        <time>2017-10-26T21:23:43Z</time>
      </trkpt>
      <trkpt lat="49.36472" lon="1.43762">
        <ele>105</ele>
        <time>2017-10-26T21:25:43Z</time>
      </trkpt>
      <trkpt lat="49.36517" lon="1.43784">
        <ele>105</ele>
        <time>2017-10-26T21:27:43Z</time>
      </trkpt>
      <trkpt lat="49.36709" lon="1.43831">
        <ele>99</ele>
        <time>2017-10-26T21:29:43Z</time>
      </trkpt>
      <trkpt lat="49.36745" lon="1.43814">
        <ele>89</ele>
        <time>2017-10-26T21:31:43Z</time>
      </trkpt>
      <trkpt lat="49.3676" lon="1.43846">
        <ele>91</ele>
        <time>2017-10-26T21:33:43Z</time>
      </trkpt>
      <trkpt lat="49.36908" lon="1.4391">
        <ele>75</ele>
        <time>2017-10-26T21:35:43Z</time>
      </trkpt>
      <trkpt lat="49.36959" lon="1.43915">
        <ele>73</ele>
        <time>2017-10-26T21:37:43Z</time>
      </trkpt>
      <trkpt lat="49.37073" lon="1.43876">
        <ele>67</ele>
        <time>2017-10-26T21:39:43Z</time>
      </trkpt>
      <trkpt lat="49.37117" lon="1.43893">
        <ele>66</ele>
        <time>2017-10-26T21:41:43Z</time>
      </trkpt>
      <trkpt lat="49.37178" lon="1.43979">
        <ele>70</ele>
        <time>2017-10-26T21:43:43Z</time>
      </trkpt>
      <trkpt lat="49.37199" lon="1.43936">
        <ele>66</ele>
        <time>2017-10-26T21:45:43Z</time>
      </trkpt>
      <trkpt lat="49.37199" lon="1.43863">
        <ele>63</ele>
        <time>2017-10-26T21:47:43Z</time>
      </trkpt>
      <trkpt lat="49.3722" lon="1.43825">
        <ele>62</ele>
        <time>2017-10-26T21:49:43Z</time>
      </trkpt>
      <trkpt lat="49.37261" lon="1.43805">
        <ele>63</ele>
        <time>2017-10-26T21:51:43Z</time>
      </trkpt>
      <trkpt lat="49.37349" lon="1.43623">
        <ele>80</ele>
        <time>2017-10-26T21:53:43Z</time>
      </trkpt>
      <trkpt lat="49.37273" lon="1.43458">
        <ele>92</ele>
        <time>2017-10-26T21:55:43Z</time>
      </trkpt>
      <trkpt lat="49.37193" lon="1.4332">
        <ele>104</ele>
        <time>2017-10-26T21:57:43Z</time>
      </trkpt>
      <trkpt lat="49.37268" lon="1.43159">
        <ele>118</ele>
        <time>2017-10-26T21:59:43Z</time>
      </trkpt>
      <trkpt lat="49.37283" lon="1.43106">
        <ele>119</ele>
        <time>2017-10-26T22:01:43Z</time>
      </trkpt>
      <trkpt lat="49.37287" lon="1.43046">
        <ele>121</ele>
        <time>2017-10-26T22:03:43Z</time>
      </trkpt>
      <trkpt lat="49.37207" lon="1.42805">
        <ele>124</ele>
        <time>2017-10-26T22:05:43Z</time>
      </trkpt>
      <trkpt lat="49.3728" lon="1.42732">
        <ele>123</ele>
        <time>2017-10-26T22:07:43Z</time>
      </trkpt>
      <trkpt lat="49.37297" lon="1.42709">
        <ele>122</ele>
        <time>2017-10-26T22:09:43Z</time>
      </trkpt>
      <trkpt lat="49.37315" lon="1.42687">
        <ele>121</ele>
        <time>2017-10-26T22:11:43Z</time>
      </trkpt>
      <trkpt lat="49.37393" lon="1.42265">
        <ele>112</ele>
        <time>2017-10-26T22:13:43Z</time>
      </trkpt>
      <trkpt lat="49.37378" lon="1.42183">
        <ele>117</ele>
        <time>2017-10-26T22:15:43Z</time>
      </trkpt>
      <trkpt lat="49.37465" lon="1.42087">
        <ele>119</ele>
        <time>2017-10-26T22:17:43Z</time>
      </trkpt>
      <trkpt lat="49.37501" lon="1.42078">
        <ele>118</ele>
        <time>2017-10-26T22:19:43Z</time>
      </trkpt>
      <trkpt lat="49.37526" lon="1.42054">
        <ele>120</ele>
        <time>2017-10-26T22:21:43Z</time>
      </trkpt>
      <trkpt lat="49.37627" lon="1.42033">
        <ele>124</ele>
        <time>2017-10-26T22:23:43Z</time>
      </trkpt>
      <trkpt lat="49.37678" lon="1.42029">
        <ele>127</ele>
        <time>2017-10-26T22:25:43Z</time>
      </trkpt>
      <trkpt lat="49.37701" lon="1.42057">
        <ele>123</ele>
        <time>2017-10-26T22:27:43Z</time>
      </trkpt>
      <trkpt lat="49.3775" lon="1.42009">
        <ele>124</ele>
        <time>2017-10-26T22:29:43Z</time>
      </trkpt>
      <trkpt lat="49.37751" lon="1.4196">
        <ele>126</ele>
        <time>2017-10-26T22:31:43Z</time>
      </trkpt>
      <trkpt lat="49.37776" lon="1.41846">
        <ele>123</ele>
        <time>2017-10-26T22:33:43Z</time>
      </trkpt>
      <trkpt lat="49.37775" lon="1.41801">
        <ele>124</ele>
        <time>2017-10-26T22:35:43Z</time>
      </trkpt>
      <trkpt lat="49.37812" lon="1.41748">
        <ele>124</ele>
        <time>2017-10-26T22:37:43Z</time>
      </trkpt>
      <trkpt lat="49.37833" lon="1.41696">
        <ele>125</ele>
        <time>2017-10-26T22:39:43Z</time>
      </trkpt>
      <trkpt lat="49.37865" lon="1.41685">
        <ele>127</ele>
        <time>2017-10-26T22:41:43Z</time>
      </trkpt>
      <trkpt lat="49.37877" lon="1.41756">
        <ele>125</ele>
        <time>2017-10-26T22:43:43Z</time>
      </trkpt>
      <trkpt lat="49.37903" lon="1.41872">
        <ele>118</ele>
        <time>2017-10-26T22:45:43Z</time>
      </trkpt>
      <trkpt lat="49.38025" lon="1.41754">
        <ele>123</ele>
        <time>2017-10-26T22:47:43Z</time>
      </trkpt>
      <trkpt lat="49.38092" lon="1.41642">
        <ele>129</ele>
        <time>2017-10-26T22:49:43Z</time>
      </trkpt>
      <trkpt lat="49.38169" lon="1.41567">
        <ele>135</ele>
        <time>2017-10-26T22:51:43Z</time>
      </trkpt>
      <trkpt lat="49.38241" lon="1.41544">
        <ele>130</ele>
        <time>2017-10-26T22:53:43Z</time>
      </trkpt>
      <trkpt lat="49.38276" lon="1.41484">
        <ele>133</ele>
        <time>2017-10-26T22:55:43Z</time>
      </trkpt>
      <trkpt lat="49.38321" lon="1.41471">
        <ele>131</ele>
        <time>2017-10-26T22:57:43Z</time>
      </trkpt>
      <trkpt lat="49.3837" lon="1.41488">
        <ele>130</ele>
        <time>2017-10-26T22:59:43Z</time>
      </trkpt>
      <trkpt lat="49.38401" lon="1.41484">
        <ele>131</ele>
        <time>2017-10-26T23:01:43Z</time>
      </trkpt>
      <trkpt lat="49.38433" lon="1.41494">
        <ele>132</ele>
        <time>2017-10-26T23:03:43Z</time>
      </trkpt>
      <trkpt lat="49.38473" lon="1.41481">
        <ele>134</ele>
        <time>2017-10-26T23:05:43Z</time>
      </trkpt>
      <trkpt lat="49.38511" lon="1.4152">
        <ele>132</ele>
        <time>2017-10-26T23:07:43Z</time>
      </trkpt>
      <trkpt lat="49.38568" lon="1.41509">
        <ele>133</ele>
        <time>2017-10-26T23:09:43Z</time>
      </trkpt>
      <trkpt lat="49.38637" lon="1.41587">
        <ele>129</ele>
        <time>2017-10-26T23:11:43Z</time>
      </trkpt>
      <trkpt lat="49.38744" lon="1.41584">
        <ele>129</ele>
        <time>2017-10-26T23:13:43Z</time>
      </trkpt>
      <trkpt lat="49.3878" lon="1.41557">
        <ele>128</ele>
        <time>2017-10-26T23:15:43Z</time>
      </trkpt>
      <trkpt lat="49.38889" lon="1.41299">
        <ele>121</ele>
        <time>2017-10-26T23:17:43Z</time>
      </trkpt>
      <trkpt lat="49.38938" lon="1.41306">
        <ele>115</ele>
        <time>2017-10-26T23:19:43Z</time>
      </trkpt>
      <trkpt lat="49.38993" lon="1.41297">
        <ele>109</ele>
        <time>2017-10-26T23:21:43Z</time>
      </trkpt>
      <trkpt lat="49.39049" lon="1.41275">
        <ele>101</ele>
        <time>2017-10-26T23:23:43Z</time>
      </trkpt>
      <trkpt lat="49.39058" lon="1.41196">
        <ele>98</ele>
        <time>2017-10-26T23:25:43Z</time>
      </trkpt>
      <trkpt lat="49.39085" lon="1.40997">
        <ele>92</ele>
        <time>2017-10-26T23:27:43Z</time>
      </trkpt>
      <trkpt lat="49.39141" lon="1.4096">
        <ele>88</ele>
        <time>2017-10-26T23:29:43Z</time>
      </trkpt>
      <trkpt lat="49.39121" lon="1.41052">
        <ele>91</ele>
        <time>2017-10-26T23:31:43Z</time>
      </trkpt>
      <trkpt lat="49.39125" lon="1.41127">
        <ele>92</ele>
        <time>2017-10-26T23:33:43Z</time>
      </trkpt>
      <trkpt lat="49.39137" lon="1.41205">
        <ele>92</ele>
        <time>2017-10-26T23:35:43Z</time>
      </trkpt>
      <trkpt lat="49.39145" lon="1.41265">
        <ele>92</ele>
        <time>2017-10-26T23:37:43Z</time>
      </trkpt>
      <trkpt lat="49.38958" lon="1.41662">
        <ele>103</ele>
        <time>2017-10-26T23:39:43Z</time>
      </trkpt>
      <trkpt lat="49.38944" lon="1.41735">
        <ele>104</ele>
        <time>2017-10-26T23:41:43Z</time>
      </trkpt>
      <trkpt lat="49.38933" lon="1.41799">
        <ele>108</ele>
        <time>2017-10-26T23:43:43Z</time>
      </trkpt>
      <trkpt lat="49.38915" lon="1.42153">
        <ele>119</ele>
        <time>2017-10-26T23:45:43Z</time>
      </trkpt>
      <trkpt lat="49.38873" lon="1.42286">
        <ele>118</ele>
        <time>2017-10-26T23:47:43Z</time>
      </trkpt>
      <trkpt lat="49.38773" lon="1.42741">
        <ele>116</ele>
        <time>2017-10-26T23:49:43Z</time>
      </trkpt>
      <trkpt lat="49.38785" lon="1.42906">
        <ele>118</ele>
        <time>2017-10-26T23:51:43Z</time>
      </trkpt>
      <trkpt lat="49.38765" lon="1.42984">
        <ele>118</ele>
        <time>2017-10-26T23:53:43Z</time>
      </trkpt>
      <trkpt lat="49.38845" lon="1.43095">
        <ele>118</ele>
        <time>2017-10-26T23:55:43Z</time>
      </trkpt>
      <trkpt lat="49.3888" lon="1.43037">
        <ele>120</ele>
        <time>2017-10-26T23:57:43Z</time>
      </trkpt>
      <trkpt lat="49.38938" lon="1.43003">
        <ele>119</ele>
        <time>2017-10-26T23:59:43Z</time>
      </trkpt>
      <trkpt lat="49.39099" lon="1.42808">
        <ele>128</ele>
        <time>2017-10-27T00:01:43Z</time>
      </trkpt>
      <trkpt lat="49.39123" lon="1.42844">
        <ele>125</ele>
        <time>2017-10-27T00:03:43Z</time>
      </trkpt>
      <trkpt lat="49.39174" lon="1.429">
        <ele>122</ele>
        <time>2017-10-27T00:05:43Z</time>
      </trkpt>
      <trkpt lat="49.39297" lon="1.43127">
        <ele>128</ele>
        <time>2017-10-27T00:07:43Z</time>
      </trkpt>
      <trkpt lat="49.39374" lon="1.43121">
        <ele>132</ele>
        <time>2017-10-27T00:09:43Z</time>
      </trkpt>
      <trkpt lat="49.39419" lon="1.43102">
        <ele>134</ele>
        <time>2017-10-27T00:11:43Z</time>
      </trkpt>
      <trkpt lat="49.39508" lon="1.43123">
        <ele>137</ele>
        <time>2017-10-27T00:13:43Z</time>
      </trkpt>
      <trkpt lat="49.39554" lon="1.43132">
        <ele>139</ele>
        <time>2017-10-27T00:15:43Z</time>
      </trkpt>
      <trkpt lat="49.39759" lon="1.43179">
        <ele>141</ele>
        <time>2017-10-27T00:17:43Z</time>
      </trkpt>
      <trkpt lat="49.39829" lon="1.43239">
        <ele>144</ele>
        <time>2017-10-27T00:19:43Z</time>
      </trkpt>
      <trkpt lat="49.39902" lon="1.43269">
        <ele>145</ele>
        <time>2017-10-27T00:21:43Z</time>
      </trkpt>
      <trkpt lat="49.4003" lon="1.4328">
        <ele>155</ele>
        <time>2017-10-27T00:23:43Z</time>
      </trkpt>
      <trkpt lat="49.40141" lon="1.4332">
        <ele>162</ele>
        <time>2017-10-27T00:25:43Z</time>
      </trkpt>
      <trkpt lat="49.40325" lon="1.43511">
        <ele>174</ele>
        <time>2017-10-27T00:27:43Z</time>
      </trkpt>
      <trkpt lat="49.4055" lon="1.43737">
        <ele>172</ele>
        <time>2017-10-27T00:29:43Z</time>
      </trkpt>
      <trkpt lat="49.40615" lon="1.4382">
        <ele>170</ele>
        <time>2017-10-27T00:31:43Z</time>
      </trkpt>
      <trkpt lat="49.40844" lon="1.44333">
        <ele>177</ele>
        <time>2017-10-27T00:33:43Z</time>
      </trkpt>
      <trkpt lat="49.41657" lon="1.45464">
        <ele>165</ele>
        <time>2017-10-27T00:35:43Z</time>
      </trkpt>
      <trkpt lat="49.41812" lon="1.45344">
        <ele>174</ele>
        <time>2017-10-27T00:37:43Z</time>
      </trkpt>
      <trkpt lat="49.41914" lon="1.45301">
        <ele>172</ele>
        <time>2017-10-27T00:39:43Z</time>
      </trkpt>
      <trkpt lat="49.42035" lon="1.45569">
        <ele>164</ele>
        <time>2017-10-27T00:41:43Z</time>
      </trkpt>
      <trkpt lat="49.42053" lon="1.45676">
        <ele>164</ele>
        <time>2017-10-27T00:43:43Z</time>
      </trkpt>
      <trkpt lat="49.42127" lon="1.45814">
        <ele>161</ele>
        <time>2017-10-27T00:45:43Z</time>
      </trkpt>
      <trkpt lat="49.42133" lon="1.45842">
        <ele>161</ele>
        <time>2017-10-27T00:47:43Z</time>
      </trkpt>
      <trkpt lat="49.42224" lon="1.45936">
        <ele>159</ele>
        <time>2017-10-27T00:49:43Z</time>
      </trkpt>
      <trkpt lat="49.42298" lon="1.46003">
        <ele>155</ele>
        <time>2017-10-27T00:51:43Z</time>
      </trkpt>
      <trkpt lat="49.42337" lon="1.46061">
        <ele>152</ele>
        <time>2017-10-27T00:53:43Z</time>
      </trkpt>
      <trkpt lat="49.4239" lon="1.46161">
        <ele>152</ele>
        <time>2017-10-27T00:55:43Z</time>
      </trkpt>
      <trkpt lat="49.42532" lon="1.46361">
        <ele>162</ele>
        <time>2017-10-27T00:57:43Z</time>
      </trkpt>
      <trkpt lat="49.42564" lon="1.46449">
        <ele>163</ele>
        <time>2017-10-27T00:59:43Z</time>
      </trkpt>
      <trkpt lat="49.4257" lon="1.46537">
        <ele>168</ele>
        <time>2017-10-27T01:01:43Z</time>
      </trkpt>
      <trkpt lat="49.42642" lon="1.46745">
        <ele>166</ele>
        <time>2017-10-27T01:03:43Z</time>
      </trkpt>
      <trkpt lat="49.42635" lon="1.46807">
        <ele>166</ele>
        <time>2017-10-27T01:05:43Z</time>
      </trkpt>
      <trkpt lat="49.42591" lon="1.4691">
        <ele>169</ele>
        <time>2017-10-27T01:07:43Z</time>
      </trkpt>
      <trkpt lat="49.42507" lon="1.47033">
        <ele>166</ele>
        <time>2017-10-27T01:09:43Z</time>
      </trkpt>
      <trkpt lat="49.42252" lon="1.47243">
        <ele>160</ele>
        <time>2017-10-27T01:11:43Z</time>
      </trkpt>
      <trkpt lat="49.42145" lon="1.47279">
        <ele>160</ele>
        <time>2017-10-27T01:13:43Z</time>
      </trkpt>
      <trkpt lat="49.42077" lon="1.47327">
        <ele>159</ele>
        <time>2017-10-27T01:15:43Z</time>
      </trkpt>
      <trkpt lat="49.42048" lon="1.47365">
        <ele>158</ele>
        <time>2017-10-27T01:17:43Z</time>
      </trkpt>
      <trkpt lat="49.41956" lon="1.47445">
        <ele>159</ele>
        <time>2017-10-27T01:19:43Z</time>
      </trkpt>
      <trkpt lat="49.41723" lon="1.47483">
        <ele>153</ele>
        <time>2017-10-27T01:21:43Z</time>
      </trkpt>
      <trkpt lat="49.41429" lon="1.47672">
        <ele>159</ele>
        <time>2017-10-27T01:23:43Z</time>
      </trkpt>
      <trkpt lat="49.41358" lon="1.47747">
        <ele>159</ele>
        <time>2017-10-27T01:25:43Z</time>
      </trkpt>
      <trkpt lat="49.4132" lon="1.47754">
        <ele>155</ele>
        <time>2017-10-27T01:27:43Z</time>
      </trkpt>
      <trkpt lat="49.41244" lon="1.47852">
        <ele>149</ele>
        <time>2017-10-27T01:29:43Z</time>
      </trkpt>
      <trkpt lat="49.41096" lon="1.4785">
        <ele>145</ele>
        <time>2017-10-27T01:31:43Z</time>
      </trkpt>
      <trkpt lat="49.41048" lon="1.47914">
        <ele>150</ele>
        <time>2017-10-27T01:33:43Z</time>
      </trkpt>
      <trkpt lat="49.41006" lon="1.47955">
        <ele>152</ele>
        <time>2017-10-27T01:35:43Z</time>
      </trkpt>
      <trkpt lat="49.40978" lon="1.47932">
        <ele>147</ele>
        <time>2017-10-27T01:37:43Z</time>
      </trkpt>
      <trkpt lat="49.40945" lon="1.47938">
        <ele>144</ele>
        <time>2017-10-27T01:39:43Z</time>
      </trkpt>
      <trkpt lat="49.40907" lon="1.47957">
        <ele>140</ele>
        <time>2017-10-27T01:41:43Z</time>
      </trkpt>
      <trkpt lat="49.40881" lon="1.48002">
        <ele>139</ele>
        <time>2017-10-27T01:43:43Z</time>
      </trkpt>
      <trkpt lat="49.40839" lon="1.4811">
        <ele>133</ele>
        <time>2017-10-27T01:45:43Z</time>
      </trkpt>
      <trkpt lat="49.40751" lon="1.4823">
        <ele>120</ele>
        <time>2017-10-27T01:47:43Z</time>
      </trkpt>
      <trkpt lat="49.40727" lon="1.48226">
        <ele>114</ele>
        <time>2017-10-27T01:49:43Z</time>
      </trkpt>
      <trkpt lat="49.40689" lon="1.48271">
        <ele>110</ele>
        <time>2017-10-27T01:51:43Z</time>
      </trkpt>
      <trkpt lat="49.40493" lon="1.4832">
        <ele>94</ele>
        <time>2017-10-27T01:53:43Z</time>
      </trkpt>
      <trkpt lat="49.40502" lon="1.48374">
        <ele>93</ele>
        <time>2017-10-27T01:55:43Z</time>
      </trkpt>
      <trkpt lat="49.41114" lon="1.495">
        <ele>94</ele>
        <time>2017-10-27T01:57:43Z</time>
      </trkpt>
      <trkpt lat="49.41097" lon="1.49554">
        <ele>93</ele>
        <time>2017-10-27T01:59:43Z</time>
      </trkpt>
      <trkpt lat="49.41103" lon="1.4961">
        <ele>94</ele>
        <time>2017-10-27T02:01:43Z</time>
      </trkpt>
      <trkpt lat="49.41133" lon="1.4967">
        <ele>95</ele>
        <time>2017-10-27T02:03:43Z</time>
      </trkpt>
      <trkpt lat="49.41237" lon="1.49777">
        <ele>95</ele>
        <time>2017-10-27T02:05:43Z</time>
      </trkpt>
      <trkpt lat="49.41293" lon="1.49884">
        <ele>98</ele>
        <time>2017-10-27T02:07:43Z</time>
      </trkpt>
      <trkpt lat="49.41348" lon="1.49874">
        <ele>99</ele>
        <time>2017-10-27T02:09:43Z</time>
      </trkpt>
      <trkpt lat="49.41372" lon="1.4994">
        <ele>98</ele>
        <time>2017-10-27T02:11:43Z</time>
      </trkpt>
      <trkpt lat="49.41401" lon="1.49974">
        <ele>98</ele>
        <time>2017-10-27T02:13:43Z</time>
      </trkpt>
      <trkpt lat="49.41459" lon="1.50215">
        <ele>98</ele>
        <time>2017-10-27T02:15:43Z</time>
      </trkpt>
      <trkpt lat="49.41461" lon="1.50309">
        <ele>100</ele>
        <time>2017-10-27T02:17:43Z</time>
      </trkpt>
      <trkpt lat="49.41442" lon="1.50393">
        <ele>99</ele>
        <time>2017-10-27T02:19:43Z</time>
      </trkpt>
      <trkpt lat="49.41466" lon="1.50498">
        <ele>99</ele>
        <time>2017-10-27T02:21:43Z</time>
      </trkpt>
      <trkpt lat="49.41508" lon="1.50552">
        <ele>101</ele>
        <time>2017-10-27T02:23:43Z</time>
      </trkpt>
      <trkpt lat="49.41502" lon="1.50612">
        <ele>102</ele>
        <time>2017-10-27T02:25:43Z</time>
      </trkpt>
      <trkpt lat="49.41387" lon="1.5074">
        <ele>123</ele>
        <time>2017-10-27T02:27:43Z</time>
      </trkpt>
      <trkpt lat="49.41325" lon="1.50974">
        <ele>140</ele>
        <time>2017-10-27T02:29:43Z</time>
      </trkpt>
      <trkpt lat="49.41323" lon="1.51045">
        <ele>143</ele>
        <time>2017-10-27T02:31:43Z</time>
      </trkpt>
      <trkpt lat="49.41266" lon="1.51122">
        <ele>151</ele>
        <time>2017-10-27T02:33:43Z</time>
      </trkpt>
      <trkpt lat="49.41202" lon="1.50891">
        <ele>152</ele>
        <time>2017-10-27T02:35:43Z</time>
      </trkpt>
      <trkpt lat="49.41149" lon="1.50698">
        <ele>153</ele>
        <time>2017-10-27T02:37:43Z</time>
      </trkpt>
      <trkpt lat="49.41126" lon="1.50558">
        <ele>154</ele>
        <time>2017-10-27T02:39:43Z</time>
      </trkpt>
      <trkpt lat="49.41107" lon="1.50524">
        <ele>156</ele>
        <time>2017-10-27T02:41:43Z</time>
      </trkpt>
      <trkpt lat="49.41018" lon="1.50431">
        <ele>153</ele>
        <time>2017-10-27T02:43:43Z</time>
      </trkpt>
      <trkpt lat="49.40955" lon="1.50305">
        <ele>146</ele>
        <time>2017-10-27T02:45:43Z</time>
      </trkpt>
      <trkpt lat="49.40918" lon="1.50174">
        <ele>140</ele>
        <time>2017-10-27T02:47:43Z</time>
      </trkpt>
      <trkpt lat="49.40879" lon="1.5011">
        <ele>143</ele>
        <time>2017-10-27T02:49:43Z</time>
      </trkpt>
      <trkpt lat="49.4083" lon="1.49919">
        <ele>142</ele>
        <time>2017-10-27T02:51:43Z</time>
      </trkpt>
      <trkpt lat="49.40804" lon="1.49704">
        <ele>136</ele>
        <time>2017-10-27T02:53:43Z</time>
      </trkpt>
      <trkpt lat="49.40701" lon="1.49369">
        <ele>136</ele>
        <time>2017-10-27T02:55:43Z</time>
      </trkpt>
      <trkpt lat="49.40522" lon="1.49045">
        <ele>107</ele>
        <time>2017-10-27T02:57:43Z</time>
      </trkpt>
      <trkpt lat="49.40497" lon="1.48897">
        <ele>93</ele>
        <time>2017-10-27T02:59:43Z</time>
      </trkpt>
      <trkpt lat="49.40472" lon="1.4902">
        <ele>102</ele>
        <time>2017-10-27T03:01:43Z</time>
      </trkpt>
      <trkpt lat="49.40456" lon="1.49155">
        <ele>111</ele>
        <time>2017-10-27T03:03:43Z</time>
      </trkpt>
      <trkpt lat="49.40361" lon="1.49292">
        <ele>115</ele>
        <time>2017-10-27T03:05:43Z</time>
      </trkpt>
      <trkpt lat="49.40307" lon="1.49307">
        <ele>111</ele>
        <time>2017-10-27T03:07:43Z</time>
      </trkpt>
      <trkpt lat="49.40289" lon="1.49352">
        <ele>113</ele>
        <time>2017-10-27T03:09:43Z</time>
      </trkpt>
      <trkpt lat="49.4029" lon="1.49406">
        <ele>114</ele>
        <time>2017-10-27T03:11:43Z</time>
      </trkpt>
      <trkpt lat="49.40319" lon="1.49485">
        <ele>115</ele>
        <time>2017-10-27T03:13:43Z</time>
      </trkpt>
      <trkpt lat="49.40356" lon="1.49552">
        <ele>121</ele>
        <time>2017-10-27T03:15:43Z</time>
      </trkpt>
      <trkpt lat="49.40359" lon="1.49653">
        <ele>124</ele>
        <time>2017-10-27T03:17:43Z</time>
      </trkpt>
      <trkpt lat="49.40326" lon="1.49741">
        <ele>124</ele>
        <time>2017-10-27T03:19:43Z</time>
      </trkpt>
      <trkpt lat="49.4019" lon="1.49925">
        <ele>130</ele>
        <time>2017-10-27T03:21:43Z</time>
      </trkpt>
      <trkpt lat="49.40135" lon="1.49987">
        <ele>134</ele>
        <time>2017-10-27T03:23:43Z</time>
      </trkpt>
      <trkpt lat="49.4012" lon="1.50054">
        <ele>139</ele>
        <time>2017-10-27T03:25:43Z</time>
      </trkpt>
      <trkpt lat="49.4005" lon="1.50013">
        <ele>140</ele>
        <time>2017-10-27T03:27:43Z</time>
      </trkpt>
      <trkpt lat="49.39987" lon="1.49972">
        <ele>150</ele>
        <time>2017-10-27T03:29:43Z</time>
      </trkpt>
      <trkpt lat="49.3998" lon="1.49921">
        <ele>151</ele>
        <time>2017-10-27T03:31:43Z</time>
      </trkpt>
      <trkpt lat="49.40086" lon="1.49691">
        <ele>143</ele>
        <time>2017-10-27T03:33:43Z</time>
      </trkpt>
      <trkpt lat="49.40106" lon="1.49644">
        <ele>142</ele>
        <time>2017-10-27T03:35:43Z</time>
      </trkpt>
      <trkpt lat="49.40141" lon="1.49571">
        <ele>136</ele>
        <time>2017-10-27T03:37:43Z</time>
      </trkpt>
      <trkpt lat="49.40143" lon="1.49453">
        <ele>127</ele>
        <time>2017-10-27T03:39:43Z</time>
      </trkpt>
      <trkpt lat="49.40049" lon="1.49451">
        <ele>143</ele>
        <time>2017-10-27T03:41:43Z</time>
      </trkpt>
      <trkpt lat="49.40033" lon="1.49432">
        <ele>144</ele>
        <time>2017-10-27T03:43:43Z</time>
      </trkpt>
      <trkpt lat="49.40043" lon="1.49359">
        <ele>141</ele>
        <time>2017-10-27T03:45:43Z</time>
      </trkpt>
      <trkpt lat="49.40043" lon="1.49262">
        <ele>143</ele>
        <time>2017-10-27T03:47:43Z</time>
      </trkpt>
      <trkpt lat="49.39991" lon="1.48994">
        <ele>152</ele>
        <time>2017-10-27T03:49:43Z</time>
      </trkpt>
      <trkpt lat="49.39887" lon="1.48962">
        <ele>154</ele>
        <time>2017-10-27T03:51:43Z</time>
      </trkpt>
      <trkpt lat="49.39884" lon="1.48863">
        <ele>153</ele>
        <time>2017-10-27T03:53:43Z</time>
      </trkpt>
      <trkpt lat="49.39829" lon="1.4876">
        <ele>156</ele>
        <time>2017-10-27T03:55:43Z</time>
      </trkpt>
      <trkpt lat="49.39842" lon="1.48681">
        <ele>150</ele>
        <time>2017-10-27T03:57:43Z</time>
      </trkpt>
      <trkpt lat="49.39863" lon="1.48633">
        <ele>146</ele>
        <time>2017-10-27T03:59:43Z</time>
      </trkpt>
      <trkpt lat="49.3993" lon="1.4852">
        <ele>138</ele>
        <time>2017-10-27T04:01:43Z</time>
      </trkpt>
      <trkpt lat="49.39937" lon="1.48438">
        <ele>124</ele>
        <time>2017-10-27T04:03:43Z</time>
      </trkpt>
      <trkpt lat="49.39988" lon="1.48367">
        <ele>121</ele>
        <time>2017-10-27T04:05:43Z</time>
      </trkpt>
      <trkpt lat="49.40016" lon="1.48284">
        <ele>115</ele>
        <time>2017-10-27T04:07:43Z</time>
      </trkpt>
      <trkpt lat="49.40019" lon="1.48236">
        <ele>112</ele>
        <time>2017-10-27T04:09:43Z</time>
      </trkpt>
      <trkpt lat="49.40029" lon="1.48166">
        <ele>109</ele>
        <time>2017-10-27T04:11:43Z</time>
      </trkpt>
      <trkpt lat="49.40018" lon="1.48101">
        <ele>107</ele>
        <time>2017-10-27T04:13:43Z</time>
      </trkpt>
      <trkpt lat="49.39975" lon="1.48017">
        <ele>105</ele>
        <time>2017-10-27T04:15:43Z</time>
      </trkpt>
      <trkpt lat="49.39966" lon="1.47854">
        <ele>102</ele>
        <time>2017-10-27T04:17:43Z</time>
      </trkpt>
      <trkpt lat="49.39866" lon="1.47681">
        <ele>107</ele>
        <time>2017-10-27T04:19:43Z</time>
      </trkpt>
      <trkpt lat="49.39817" lon="1.47736">
        <ele>113</ele>
        <time>2017-10-27T04:21:43Z</time>
      </trkpt>
      <trkpt lat="49.39794" lon="1.47683">
        <ele>114</ele>
        <time>2017-10-27T04:23:43Z</time>
      </trkpt>
      <trkpt lat="49.39797" lon="1.47573">
        <ele>108</ele>
        <time>2017-10-27T04:25:43Z</time>
      </trkpt>
      <trkpt lat="49.39779" lon="1.47565">
        <ele>108</ele>
        <time>2017-10-27T04:27:43Z</time>
      </trkpt>
      <trkpt lat="49.39794" lon="1.47526">
        <ele>106</ele>
        <time>2017-10-27T04:29:43Z</time>
      </trkpt>
      <trkpt lat="49.39793" lon="1.47479">
        <ele>105</ele>
        <time>2017-10-27T04:31:43Z</time>
      </trkpt>
      <trkpt lat="49.39769" lon="1.47425">
        <ele>106</ele>
        <time>2017-10-27T04:33:43Z</time>
      </trkpt>
      <trkpt lat="49.3974" lon="1.47299">
        <ele>112</ele>
        <time>2017-10-27T04:35:43Z</time>
      </trkpt>
      <trkpt lat="49.39709" lon="1.47112">
        <ele>117</ele>
        <time>2017-10-27T04:37:43Z</time>
      </trkpt>
      <trkpt lat="49.39708" lon="1.47075">
        <ele>115</ele>
        <time>2017-10-27T04:39:43Z</time>
      </trkpt>
      <trkpt lat="49.39674" lon="1.46874">
        <ele>104</ele>
        <time>2017-10-27T04:41:43Z</time>
      </trkpt>
      <trkpt lat="49.39655" lon="1.46809">
        <ele>97</ele>
        <time>2017-10-27T04:43:43Z</time>
      </trkpt>
      <trkpt lat="49.3963" lon="1.4676">
        <ele>93</ele>
        <time>2017-10-27T04:45:43Z</time>
      </trkpt>
      <trkpt lat="49.39687" lon="1.46683">
        <ele>82</ele>
        <time>2017-10-27T04:47:43Z</time>
      </trkpt>
      <trkpt lat="49.39761" lon="1.46717">
        <ele>81</ele>
        <time>2017-10-27T04:49:43Z</time>
      </trkpt>
      <trkpt lat="49.39808" lon="1.46724">
        <ele>82</ele>
        <time>2017-10-27T04:51:43Z</time>
      </trkpt>
      <trkpt lat="49.39827" lon="1.46685">
        <ele>82</ele>
        <time>2017-10-27T04:53:43Z</time>
      </trkpt>
      <trkpt lat="49.39808" lon="1.46627">
        <ele>82</ele>
        <time>2017-10-27T04:55:43Z</time>
      </trkpt>
      <trkpt lat="49.39758" lon="1.46515">
        <ele>82</ele>
        <time>2017-10-27T04:57:43Z</time>
      </trkpt>
      <trkpt lat="49.39736" lon="1.46419">
        <ele>83</ele>
        <time>2017-10-27T04:59:43Z</time>
      </trkpt>
      <trkpt lat="49.39662" lon="1.46322">
        <ele>84</ele>
        <time>2017-10-27T05:01:43Z</time>
      </trkpt>
      <trkpt lat="49.39604" lon="1.46273">
        <ele>83</ele>
        <time>2017-10-27T05:03:43Z</time>
      </trkpt>
      <trkpt lat="49.39554" lon="1.46187">
        <ele>85</ele>
        <time>2017-10-27T05:05:43Z</time>
      </trkpt>
      <trkpt lat="49.39537" lon="1.46157">
        <ele>84</ele>
        <time>2017-10-27T05:07:43Z</time>
      </trkpt>
      <trkpt lat="49.39521" lon="1.46065">
        <ele>86</ele>
        <time>2017-10-27T05:09:43Z</time>
      </trkpt>
      <trkpt lat="49.39519" lon="1.45983">
        <ele>89</ele>
        <time>2017-10-27T05:11:43Z</time>
      </trkpt>
      <trkpt lat="49.39465" lon="1.45749">
        <ele>84</ele>
        <time>2017-10-27T05:13:43Z</time>
      </trkpt>
      <trkpt lat="49.39461" lon="1.45646">
        <ele>85</ele>
        <time>2017-10-27T05:15:43Z</time>
      </trkpt>
      <trkpt lat="49.39438" lon="1.45539">
        <ele>87</ele>
        <time>2017-10-27T05:17:43Z</time>
      </trkpt>
      <trkpt lat="49.39364" lon="1.45299">
        <ele>86</ele>
        <time>2017-10-27T05:19:43Z</time>
      </trkpt>
      <trkpt lat="49.39292" lon="1.45136">
        <ele>88</ele>
        <time>2017-10-27T05:21:43Z</time>
      </trkpt>
      <trkpt lat="49.39244" lon="1.44998">
        <ele>88</ele>
        <time>2017-10-27T05:23:43Z</time>
      </trkpt>
      <trkpt lat="49.39225" lon="1.4493">
        <ele>90</ele>
        <time>2017-10-27T05:25:43Z</time>
      </trkpt>
      <trkpt lat="49.39216" lon="1.44747">
        <ele>109</ele>
        <time>2017-10-27T05:27:43Z</time>
      </trkpt>
      <trkpt lat="49.39204" lon="1.44704">
        <ele>114</ele>
        <time>2017-10-27T05:29:43Z</time>
      </trkpt>
      <trkpt lat="49.39086" lon="1.44363">
        <ele>139</ele>
        <time>2017-10-27T05:31:43Z</time>
      </trkpt>
      <trkpt lat="49.3903" lon="1.44275">
        <ele>139</ele>
        <time>2017-10-27T05:33:43Z</time>
      </trkpt>
      <trkpt lat="49.39012" lon="1.44059">
        <ele>138</ele>
        <time>2017-10-27T05:35:43Z</time>
      </trkpt>
      <trkpt lat="49.39019" lon="1.44016">
        <ele>137</ele>
        <time>2017-10-27T05:37:43Z</time>
      </trkpt>
      <trkpt lat="49.39264" lon="1.44007">
        <ele>144</ele>
        <time>2017-10-27T05:39:43Z</time>
      </trkpt>
      <trkpt lat="49.39442" lon="1.43947">
        <ele>146</ele>
        <time>2017-10-27T05:41:43Z</time>
      </trkpt>
      <trkpt lat="49.39554" lon="1.43889">
        <ele>157</ele>
        <time>2017-10-27T05:43:43Z</time>
      </trkpt>
      <trkpt lat="49.40111" lon="1.4358">
        <ele>156</ele>
        <time>2017-10-27T05:45:43Z</time>
      </trkpt>
      <trkpt lat="49.40138" lon="1.43537">
        <ele>157</ele>
        <time>2017-10-27T05:47:43Z</time>
      </trkpt>
      <trkpt lat="49.40248" lon="1.43404">
        <ele>167</ele>
        <time>2017-10-27T05:49:43Z</time>
      </trkpt>
      <trkpt lat="49.40345" lon="1.43331">
        <ele>167</ele>
        <time>2017-10-27T05:51:43Z</time>
      </trkpt>
      <trkpt lat="49.40431" lon="1.43178">
        <ele>161</ele>
        <time>2017-10-27T05:53:43Z</time>
      </trkpt>
      <trkpt lat="49.40441" lon="1.43134">
        <ele>160</ele>
        <time>2017-10-27T05:55:43Z</time>
      </trkpt>
      <trkpt lat="49.4048" lon="1.43104">
        <ele>160</ele>
        <time>2017-10-27T05:57:43Z</time>
      </trkpt>
      <trkpt lat="49.4044" lon="1.4305">
        <ele>159</ele>
        <time>2017-10-27T05:59:43Z</time>
      </trkpt>
      <trkpt lat="49.40347" lon="1.42984">
        <ele>159</ele>
        <time>2017-10-27T06:01:43Z</time>
      </trkpt>
      <trkpt lat="49.40326" lon="1.42932">
        <ele>161</ele>
        <time>2017-10-27T06:03:43Z</time>
      </trkpt>
      <trkpt lat="49.40326" lon="1.42863">
        <ele>163</ele>
        <time>2017-10-27T06:05:43Z</time>
      </trkpt>
      <trkpt lat="49.4036" lon="1.42771">
        <ele>164</ele>
        <time>2017-10-27T06:07:43Z</time>
      </trkpt>
      <trkpt lat="49.40435" lon="1.42662">
        <ele>164</ele>
        <time>2017-10-27T06:09:43Z</time>
      </trkpt>
      <trkpt lat="49.40469" lon="1.42016">
        <ele>150</ele>
        <time>2017-10-27T06:11:43Z</time>
      </trkpt>
      <trkpt lat="49.40405" lon="1.41237">
        <ele>144</ele>
        <time>2017-10-27T06:13:43Z</time>
      </trkpt>
      <trkpt lat="49.40396" lon="1.41164">
        <ele>140</ele>
        <time>2017-10-27T06:15:43Z</time>
      </trkpt>
      <trkpt lat="49.40355" lon="1.41118">
        <ele>139</ele>
        <time>2017-10-27T06:17:43Z</time>
      </trkpt>
      <trkpt lat="49.4011" lon="1.41041">
        <ele>139</ele>
        <time>2017-10-27T06:19:43Z</time>
      </trkpt>
      <trkpt lat="49.40065" lon="1.40935">
        <ele>136</ele>
        <time>2017-10-27T06:21:43Z</time>
      </trkpt>
      <trkpt lat="49.39908" lon="1.40917">
        <ele>134</ele>
        <time>2017-10-27T06:23:43Z</time>
      </trkpt>
      <trkpt lat="49.39841" lon="1.40827">
        <ele>128</ele>
        <time>2017-10-27T06:25:43Z</time>
      </trkpt>
      <trkpt lat="49.39756" lon="1.40829">
        <ele>113</ele>
        <time>2017-10-27T06:27:43Z</time>
      </trkpt>
      <trkpt lat="49.39741" lon="1.40788">
        <ele>107</ele>
        <time>2017-10-27T06:29:43Z</time>
      </trkpt>
      <trkpt lat="49.39692" lon="1.40784">
        <ele>99</ele>
        <time>2017-10-27T06:31:43Z</time>
      </trkpt>
      <trkpt lat="49.396" lon="1.40724">
        <ele>86</ele>
        <time>2017-10-27T06:33:43Z</time>
      </trkpt>
      <trkpt lat="49.39638" lon="1.40874">
        <ele>94</ele>
        <time>2017-10-27T06:35:43Z</time>
      </trkpt>
      <trkpt lat="49.39628" lon="1.40958">
        <ele>97</ele>
        <time>2017-10-27T06:37:43Z</time>
      </trkpt>
      <trkpt lat="49.39585" lon="1.41136">
        <ele>99</ele>
        <time>2017-10-27T06:39:43Z</time>
      </trkpt>
      <trkpt lat="49.39596" lon="1.41224">
        <ele>102</ele>
        <time>2017-10-27T06:41:43Z</time>
      </trkpt>
      <trkpt lat="49.3963" lon="1.41267">
        <ele>106</ele>
        <time>2017-10-27T06:43:43Z</time>
      </trkpt>
      <trkpt lat="49.39604" lon="1.41383">
        <ele>117</ele>
        <time>2017-10-27T06:45:43Z</time>
      </trkpt>
      <trkpt lat="49.39582" lon="1.41385">
        <ele>120</ele>
        <time>2017-10-27T06:47:43Z</time>
      </trkpt>
      <trkpt lat="49.3955" lon="1.41353">
        <ele>119</ele>
        <time>2017-10-27T06:49:43Z</time>
      </trkpt>
      <trkpt lat="49.39392" lon="1.41254">
        <ele>127</ele>
        <time>2017-10-27T06:51:43Z</time>
      </trkpt>
      <trkpt lat="49.39491" lon="1.41492">
        <ele>139</ele>
        <time>2017-10-27T06:53:43Z</time>
      </trkpt>
      <trkpt lat="49.39532" lon="1.41591">
        <ele>137</ele>
        <time>2017-10-27T06:55:43Z</time>
      </trkpt>
      <trkpt lat="49.39557" lon="1.41621">
        <ele>135</ele>
        <time>2017-10-27T06:57:43Z</time>
      </trkpt>
      <trkpt lat="49.39619" lon="1.41728">
        <ele>135</ele>
        <time>2017-10-27T06:59:43Z</time>
      </trkpt>
      <trkpt lat="49.3973" lon="1.42022">
        <ele>140</ele>
        <time>2017-10-27T07:01:43Z</time>
      </trkpt>
      <trkpt lat="49.3923" lon="1.4241">
        <ele>121</ele>
        <time>2017-10-27T07:03:43Z</time>
      </trkpt>
      <trkpt lat="49.39213" lon="1.42686">
        <ele>122</ele>
        <time>2017-10-27T07:05:43Z</time>
      </trkpt>
      <trkpt lat="49.39101" lon="1.42806">
        <ele>128</ele>
        <time>2017-10-27T07:07:43Z</time>
      </trkpt>
      <trkpt lat="49.39201" lon="1.42941">
        <ele>123</ele>
        <time>2017-10-27T07:09:43Z</time>
      </trkpt>
      <trkpt lat="49.39289" lon="1.43138">
        <ele>127</ele>
        <time>2017-10-27T07:11:43Z</time>
      </trkpt>
      <trkpt lat="49.3947" lon="1.43117">
        <ele>136</ele>
        <time>2017-10-27T07:13:43Z</time>
      </trkpt>
      <trkpt lat="49.39423" lon="1.43123">
        <ele>134</ele>
        <time>2017-10-27T07:15:43Z</time>
      </trkpt>
      <trkpt lat="49.39476" lon="1.43174">
        <ele>134</ele>
        <time>2017-10-27T07:17:43Z</time>
      </trkpt>
      <trkpt lat="49.39509" lon="1.43308">
        <ele>133</ele>
        <time>2017-10-27T07:19:43Z</time>
      </trkpt>
      <trkpt lat="49.39561" lon="1.43565">
        <ele>147</ele>
        <time>2017-10-27T07:21:43Z</time>
      </trkpt>
      <trkpt lat="49.39551" lon="1.43827">
        <ele>156</ele>
        <time>2017-10-27T07:23:43Z</time>
      </trkpt>
      <trkpt lat="49.39553" lon="1.44138">
        <ele>161</ele>
        <time>2017-10-27T07:25:43Z</time>
      </trkpt>
      <trkpt lat="49.3954" lon="1.44269">
        <ele>157</ele>
        <time>2017-10-27T07:27:43Z</time>
      </trkpt>
      <trkpt lat="49.39503" lon="1.4429">
        <ele>156</ele>
        <time>2017-10-27T07:29:43Z</time>
      </trkpt>
      <trkpt lat="49.39544" lon="1.44363">
        <ele>157</ele>
        <time>2017-10-27T07:31:43Z</time>
      </trkpt>
      <trkpt lat="49.39593" lon="1.44593">
        <ele>163</ele>
        <time>2017-10-27T07:33:43Z</time>
      </trkpt>
      <trkpt lat="49.39579" lon="1.44666">
        <ele>163</ele>
        <time>2017-10-27T07:35:43Z</time>
      </trkpt>
      <trkpt lat="49.3959" lon="1.44805">
        <ele>165</ele>
        <time>2017-10-27T07:37:43Z</time>
      </trkpt>
      <trkpt lat="49.3959" lon="1.44917">
        <ele>164</ele>
        <time>2017-10-27T07:39:43Z</time>
      </trkpt>
      <trkpt lat="49.39589" lon="1.45007">
        <ele>162</ele>
        <time>2017-10-27T07:41:43Z</time>
      </trkpt>
      <trkpt lat="49.3961" lon="1.4511">
        <ele>160</ele>
        <time>2017-10-27T07:43:43Z</time>
      </trkpt>
      <trkpt lat="49.39644" lon="1.45181">
        <ele>160</ele>
        <time>2017-10-27T07:45:43Z</time>
      </trkpt>
      <trkpt lat="49.39676" lon="1.45376">
        <ele>153</ele>
        <time>2017-10-27T07:47:43Z</time>
      </trkpt>
      <trkpt lat="49.39726" lon="1.4547">
        <ele>152</ele>
        <time>2017-10-27T07:49:43Z</time>
      </trkpt>
      <trkpt lat="49.39787" lon="1.45541">
        <ele>151</ele>
        <time>2017-10-27T07:51:43Z</time>
      </trkpt>
      <trkpt lat="49.39832" lon="1.4558">
        <ele>153</ele>
        <time>2017-10-27T07:53:43Z</time>
      </trkpt>
      <trkpt lat="49.39854" lon="1.4561">
        <ele>153</ele>
        <time>2017-10-27T07:55:43Z</time>
      </trkpt>
      <trkpt lat="49.39885" lon="1.45706">
        <ele>154</ele>
        <time>2017-10-27T07:57:43Z</time>
      </trkpt>
      <trkpt lat="49.39935" lon="1.45752">
        <ele>158</ele>
        <time>2017-10-27T07:59:43Z</time>
      </trkpt>
      <trkpt lat="49.40014" lon="1.45784">
        <ele>157</ele>
        <time>2017-10-27T08:01:43Z</time>
      </trkpt>
      <trkpt lat="49.40076" lon="1.45784">
        <ele>156</ele>
        <time>2017-10-27T08:03:43Z</time>
      </trkpt>
      <trkpt lat="49.4009" lon="1.46046">
        <ele>155</ele>
        <time>2017-10-27T08:05:43Z</time>
      </trkpt>
      <trkpt lat="49.40082" lon="1.46106">
        <ele>155</ele>
        <time>2017-10-27T08:07:43Z</time>
      </trkpt>
      <trkpt lat="49.40056" lon="1.4617">
        <ele>153</ele>
        <time>2017-10-27T08:09:43Z</time>
      </trkpt>
      <trkpt lat="49.40049" lon="1.46241">
        <ele>152</ele>
        <time>2017-10-27T08:11:43Z</time>
      </trkpt>
      <trkpt lat="49.40068" lon="1.4632">
        <ele>152</ele>
        <time>2017-10-27T08:13:43Z</time>
      </trkpt>
      <trkpt lat="49.40197" lon="1.46633">
        <ele>146</ele>
        <time>2017-10-27T08:15:43Z</time>
      </trkpt>
      <trkpt lat="49.4024" lon="1.46749">
        <ele>148</ele>
        <time>2017-10-27T08:17:43Z</time>
      </trkpt>
      <trkpt lat="49.40304" lon="1.4702">
        <ele>145</ele>
        <time>2017-10-27T08:19:43Z</time>
      </trkpt>
      <trkpt lat="49.40268" lon="1.47003">
        <ele>139</ele>
        <time>2017-10-27T08:21:43Z</time>
      </trkpt>
      <trkpt lat="49.4022" lon="1.47097">
        <ele>124</ele>
        <time>2017-10-27T08:23:43Z</time>
      </trkpt>
      <trkpt lat="49.40211" lon="1.4717">
        <ele>120</ele>
        <time>2017-10-27T08:25:43Z</time>
      </trkpt>
      <trkpt lat="49.40184" lon="1.47273">
        <ele>103</ele>
        <time>2017-10-27T08:27:43Z</time>
      </trkpt>
      <trkpt lat="49.40153" lon="1.47314">
        <ele>92</ele>
        <time>2017-10-27T08:29:43Z</time>
      </trkpt>
      <trkpt lat="49.40067" lon="1.47344">
        <ele>87</ele>
        <time>2017-10-27T08:31:43Z</time>
      </trkpt>
      <trkpt lat="49.39937" lon="1.47342">
        <ele>92</ele>
        <time>2017-10-27T08:33:43Z</time>
      </trkpt>
      <trkpt lat="49.39912" lon="1.47329">
        <ele>93</ele>
        <time>2017-10-27T08:35:43Z</time>
      </trkpt>
      <trkpt lat="49.39889" lon="1.47294">
        <ele>94</ele>
        <time>2017-10-27T08:37:43Z</time>
      </trkpt>
      <trkpt lat="49.39898" lon="1.47402">
        <ele>97</ele>
        <time>2017-10-27T08:39:43Z</time>
      </trkpt>
      <trkpt lat="49.39924" lon="1.47419">
        <ele>96</ele>
        <time>2017-10-27T08:41:43Z</time>
      </trkpt>
      <trkpt lat="49.39968" lon="1.47507">
        <ele>97</ele>
        <time>2017-10-27T08:43:43Z</time>
      </trkpt>
      <trkpt lat="49.39973" lon="1.47605">
        <ele>101</ele>
        <time>2017-10-27T08:45:43Z</time>
      </trkpt>
      <trkpt lat="49.39961" lon="1.47636">
        <ele>102</ele>
        <time>2017-10-27T08:47:43Z</time>
      </trkpt>
      <trkpt lat="49.39912" lon="1.47678">
        <ele>106</ele>
        <time>2017-10-27T08:49:43Z</time>
      </trkpt>
      <trkpt lat="49.39857" lon="1.47663">
        <ele>107</ele>
        <time>2017-10-27T08:51:43Z</time>
      </trkpt>
      <trkpt lat="49.39956" lon="1.47839">
        <ele>103</ele>
        <time>2017-10-27T08:53:43Z</time>
      </trkpt>
      <trkpt lat="49.3988" lon="1.47897">
        <ele>111</ele>
        <time>2017-10-27T08:55:43Z</time>
      </trkpt>
      <trkpt lat="49.3992" lon="1.47951">
        <ele>107</ele>
        <time>2017-10-27T08:57:43Z</time>
      </trkpt>
    </trkseg>
  </trk>
</gpx>